sensor_id;sensor_type;location;lat;lon;timestamp;P1;durP1;ratioP1;P2;durP2;ratioP2
4597;SDS011;62772;48.646;8.906;2023-06-22T00:04:26;21.00;;;9.90;;
4597;SDS011;62772;48.646;8.906;2023-06-22T00:09:27;14.20;;;9.60;;
4597;SDS011;62772;48.646;8.906;2023-06-22T00:14:27;14.93;;;9.73;;
4597;SDS011;62772;48.646;8.906;2023-06-22T00:19:28;13.10;;;8.87;;
4597;SDS011;62772;48.646;8.906;2023-06-22T00:24:28;11.73;;;8.03;;
4597;SDS011;62772;48.646;8.906;2023-06-22T00:29:29;22.53;;;9.53;;
4597;SDS011;62772;48.646;8.906;2023-06-22T00:34:30;14.83;;;8.90;;
4597;SDS011;62772;48.646;8.906;2023-06-22T00:39:30;13.67;;;9.27;;
4597;SDS011;62772;48.646;8.906;2023-06-22T00:44:33;15.73;;;9.20;;
4597;SDS011;62772;48.646;8.906;2023-06-22T00:49:33;17.33;;;10.33;;
4597;SDS011;62772;48.646;8.906;2023-06-22T00:54:34;17.20;;;9.83;;
4597;SDS011;62772;48.646;8.906;2023-06-22T00:59:36;18.07;;;11.03;;
4597;SDS011;62772;48.646;8.906;2023-06-22T01:04:40;17.20;;;10.73;;
4597;SDS011;62772;48.646;8.906;2023-06-22T01:09:49;14.87;;;10.10;;
4597;SDS011;62772;48.646;8.906;2023-06-22T01:14:59;14.47;;;8.80;;
4597;SDS011;62772;48.646;8.906;2023-06-22T01:20:10;17.90;;;9.73;;
4597;SDS011;62772;48.646;8.906;2023-06-22T01:25:20;16.93;;;9.30;;
4597;SDS011;62772;48.646;8.906;2023-06-22T01:30:29;18.47;;;10.30;;
4597;SDS011;62772;48.646;8.906;2023-06-22T01:35:30;14.97;;;10.40;;
4597;SDS011;62772;48.646;8.906;2023-06-22T01:40:34;15.03;;;9.90;;
4597;SDS011;62772;48.646;8.906;2023-06-22T01:45:36;19.47;;;10.63;;
4597;SDS011;62772;48.646;8.906;2023-06-22T01:50:37;18.43;;;10.80;;
4597;SDS011;62772;48.646;8.906;2023-06-22T01:55:38;15.50;;;9.53;;
4597;SDS011;62772;48.646;8.906;2023-06-22T02:00:38;16.60;;;11.07;;
4597;SDS011;62772;48.646;8.906;2023-06-22T02:05:46;16.03;;;10.47;;
4597;SDS011;62772;48.646;8.906;2023-06-22T02:10:50;19.53;;;11.17;;
4597;SDS011;62772;48.646;8.906;2023-06-22T02:15:54;15.50;;;10.60;;
4597;SDS011;62772;48.646;8.906;2023-06-22T02:20:55;22.17;;;12.27;;
4597;SDS011;62772;48.646;8.906;2023-06-22T02:25:56;25.17;;;12.00;;
4597;SDS011;62772;48.646;8.906;2023-06-22T02:30:58;19.07;;;11.60;;
4597;SDS011;62772;48.646;8.906;2023-06-22T02:35:59;20.57;;;11.90;;
4597;SDS011;62772;48.646;8.906;2023-06-22T02:40:59;15.80;;;10.03;;
4597;SDS011;62772;48.646;8.906;2023-06-22T02:46:00;21.13;;;10.70;;
4597;SDS011;62772;48.646;8.906;2023-06-22T02:51:00;20.53;;;11.30;;
4597;SDS011;62772;48.646;8.906;2023-06-22T02:56:01;19.57;;;11.50;;
4597;SDS011;62772;48.646;8.906;2023-06-22T03:01:07;18.13;;;11.40;;
4597;SDS011;62772;48.646;8.906;2023-06-22T03:06:09;16.13;;;10.40;;
4597;SDS011;62772;48.646;8.906;2023-06-22T03:11:14;16.10;;;10.30;;
4597;SDS011;62772;48.646;8.906;2023-06-22T03:16:15;16.23;;;10.10;;
4597;SDS011;62772;48.646;8.906;2023-06-22T03:21:15;16.57;;;10.03;;
4597;SDS011;62772;48.646;8.906;2023-06-22T03:26:17;14.97;;;9.37;;
4597;SDS011;62772;48.646;8.906;2023-06-22T03:31:19;14.53;;;10.10;;
4597;SDS011;62772;48.646;8.906;2023-06-22T03:36:21;13.73;;;8.90;;
4597;SDS011;62772;48.646;8.906;2023-06-22T03:41:25;16.30;;;9.53;;
4597;SDS011;62772;48.646;8.906;2023-06-22T03:46:26;13.23;;;9.37;;
4597;SDS011;62772;48.646;8.906;2023-06-22T03:51:26;17.20;;;9.40;;
4597;SDS011;62772;48.646;8.906;2023-06-22T03:56:28;17.87;;;8.63;;
4597;SDS011;62772;48.646;8.906;2023-06-22T04:01:28;16.83;;;9.77;;
4597;SDS011;62772;48.646;8.906;2023-06-22T04:06:28;13.73;;;8.70;;
4597;SDS011;62772;48.646;8.906;2023-06-22T04:11:29;16.70;;;10.20;;
4597;SDS011;62772;48.646;8.906;2023-06-22T04:16:29;18.20;;;10.67;;
4597;SDS011;62772;48.646;8.906;2023-06-22T04:21:31;15.50;;;9.90;;
4597;SDS011;62772;48.646;8.906;2023-06-22T04:26:31;19.60;;;9.83;;
4597;SDS011;62772;48.646;8.906;2023-06-22T04:31:36;15.90;;;9.90;;
4597;SDS011;62772;48.646;8.906;2023-06-22T04:36:38;18.90;;;11.40;;
4597;SDS011;62772;48.646;8.906;2023-06-22T04:41:41;15.97;;;9.87;;
4597;SDS011;62772;48.646;8.906;2023-06-22T04:46:44;18.80;;;11.00;;
4597;SDS011;62772;48.646;8.906;2023-06-22T04:51:44;15.57;;;10.07;;
4597;SDS011;62772;48.646;8.906;2023-06-22T04:56:45;17.17;;;11.23;;
4597;SDS011;62772;48.646;8.906;2023-06-22T05:01:46;17.23;;;10.17;;
4597;SDS011;62772;48.646;8.906;2023-06-22T05:06:47;20.03;;;10.37;;
4597;SDS011;62772;48.646;8.906;2023-06-22T05:11:47;27.00;;;12.00;;
4597;SDS011;62772;48.646;8.906;2023-06-22T05:16:48;18.97;;;10.70;;
4597;SDS011;62772;48.646;8.906;2023-06-22T05:21:48;17.30;;;9.47;;
4597;SDS011;62772;48.646;8.906;2023-06-22T05:26:49;21.17;;;11.60;;
4597;SDS011;62772;48.646;8.906;2023-06-22T05:31:49;18.30;;;10.30;;
4597;SDS011;62772;48.646;8.906;2023-06-22T05:36:50;18.47;;;9.77;;
4597;SDS011;62772;48.646;8.906;2023-06-22T05:41:51;17.77;;;9.43;;
4597;SDS011;62772;48.646;8.906;2023-06-22T05:46:52;22.70;;;10.03;;
4597;SDS011;62772;48.646;8.906;2023-06-22T05:51:53;13.93;;;10.00;;
4597;SDS011;62772;48.646;8.906;2023-06-22T05:56:53;13.30;;;8.67;;
4597;SDS011;62772;48.646;8.906;2023-06-22T06:01:53;16.07;;;9.67;;
4597;SDS011;62772;48.646;8.906;2023-06-22T06:06:54;15.40;;;8.93;;
4597;SDS011;62772;48.646;8.906;2023-06-22T06:11:54;14.00;;;9.00;;
4597;SDS011;62772;48.646;8.906;2023-06-22T06:16:55;18.30;;;9.00;;
4597;SDS011;62772;48.646;8.906;2023-06-22T06:21:55;14.33;;;8.27;;
4597;SDS011;62772;48.646;8.906;2023-06-22T06:26:56;16.13;;;8.83;;
4597;SDS011;62772;48.646;8.906;2023-06-22T06:31:57;15.30;;;8.50;;
4597;SDS011;62772;48.646;8.906;2023-06-22T06:36:57;14.60;;;7.60;;
4597;SDS011;62772;48.646;8.906;2023-06-22T06:41:58;13.30;;;7.27;;
4597;SDS011;62772;48.646;8.906;2023-06-22T06:46:58;12.33;;;6.37;;
4597;SDS011;62772;48.646;8.906;2023-06-22T06:51:58;11.53;;;6.40;;
4597;SDS011;62772;48.646;8.906;2023-06-22T06:56:59;9.80;;;6.17;;
4597;SDS011;62772;48.646;8.906;2023-06-22T07:01:59;11.87;;;5.87;;
4597;SDS011;62772;48.646;8.906;2023-06-22T07:07:01;14.10;;;6.13;;
4597;SDS011;62772;48.646;8.906;2023-06-22T07:12:02;12.67;;;6.27;;
4597;SDS011;62772;48.646;8.906;2023-06-22T07:17:02;16.00;;;6.07;;
4597;SDS011;62772;48.646;8.906;2023-06-22T07:22:03;9.67;;;5.90;;
4597;SDS011;62772;48.646;8.906;2023-06-22T07:27:04;10.30;;;5.50;;
4597;SDS011;62772;48.646;8.906;2023-06-22T07:32:06;14.43;;;5.80;;
4597;SDS011;62772;48.646;8.906;2023-06-22T07:37:07;9.35;;;5.53;;
4597;SDS011;62772;48.646;8.906;2023-06-22T07:42:08;13.00;;;6.23;;
4597;SDS011;62772;48.646;8.906;2023-06-22T07:47:09;12.47;;;5.83;;
4597;SDS011;62772;48.646;8.906;2023-06-22T07:52:09;9.63;;;5.80;;
4597;SDS011;62772;48.646;8.906;2023-06-22T07:57:11;11.27;;;6.18;;
4597;SDS011;62772;48.646;8.906;2023-06-22T08:02:11;14.95;;;6.38;;
4597;SDS011;62772;48.646;8.906;2023-06-22T08:07:12;11.23;;;6.10;;
4597;SDS011;62772;48.646;8.906;2023-06-22T08:12:13;9.68;;;5.57;;
4597;SDS011;62772;48.646;8.906;2023-06-22T08:17:13;11.70;;;5.40;;
4597;SDS011;62772;48.646;8.906;2023-06-22T08:22:15;11.23;;;6.30;;
4597;SDS011;62772;48.646;8.906;2023-06-22T08:27:16;9.25;;;6.35;;
4597;SDS011;62772;48.646;8.906;2023-06-22T08:32:18;14.38;;;5.70;;
4597;SDS011;62772;48.646;8.906;2023-06-22T08:37:19;12.25;;;6.20;;
4597;SDS011;62772;48.646;8.906;2023-06-22T08:42:20;12.38;;;6.18;;
4597;SDS011;62772;48.646;8.906;2023-06-22T08:47:20;10.60;;;5.97;;
4597;SDS011;62772;48.646;8.906;2023-06-22T08:52:23;11.55;;;5.78;;
4597;SDS011;62772;48.646;8.906;2023-06-22T08:57:24;12.13;;;6.35;;
4597;SDS011;62772;48.646;8.906;2023-06-22T09:02:25;12.57;;;5.60;;
4597;SDS011;62772;48.646;8.906;2023-06-22T09:07:26;11.30;;;6.15;;
4597;SDS011;62772;48.646;8.906;2023-06-22T09:12:26;11.13;;;5.97;;
4597;SDS011;62772;48.646;8.906;2023-06-22T09:17:30;15.35;;;5.80;;
4597;SDS011;62772;48.646;8.906;2023-06-22T09:22:31;11.15;;;5.88;;
4597;SDS011;62772;48.646;8.906;2023-06-22T09:27:32;13.60;;;5.97;;
4597;SDS011;62772;48.646;8.906;2023-06-22T09:32:32;10.13;;;6.15;;
4597;SDS011;62772;48.646;8.906;2023-06-22T09:37:33;11.10;;;5.65;;
4597;SDS011;62772;48.646;8.906;2023-06-22T09:42:33;14.20;;;5.97;;
4597;SDS011;62772;48.646;8.906;2023-06-22T09:47:34;8.73;;;5.82;;
4597;SDS011;62772;48.646;8.906;2023-06-22T09:52:34;12.35;;;5.68;;
4597;SDS011;62772;48.646;8.906;2023-06-22T09:57:35;10.70;;;5.78;;
4597;SDS011;62772;48.646;8.906;2023-06-22T10:02:35;9.52;;;5.25;;
4597;SDS011;62772;48.646;8.906;2023-06-22T10:07:36;22.92;;;6.45;;
4597;SDS011;62772;48.646;8.906;2023-06-22T10:12:43;12.68;;;6.45;;
4597;SDS011;62772;48.646;8.906;2023-06-22T10:17:46;14.10;;;5.32;;
4597;SDS011;62772;48.646;8.906;2023-06-22T10:22:47;14.07;;;5.82;;
4597;SDS011;62772;48.646;8.906;2023-06-22T10:27:48;12.10;;;5.25;;
4597;SDS011;62772;48.646;8.906;2023-06-22T10:32:48;12.50;;;5.65;;
4597;SDS011;62772;48.646;8.906;2023-06-22T10:37:49;13.07;;;5.40;;
4597;SDS011;62772;48.646;8.906;2023-06-22T10:42:49;8.68;;;5.32;;
4597;SDS011;62772;48.646;8.906;2023-06-22T10:47:50;16.73;;;5.50;;
4597;SDS011;62772;48.646;8.906;2023-06-22T10:52:50;9.18;;;5.00;;
4597;SDS011;62772;48.646;8.906;2023-06-22T10:57:51;17.35;;;6.47;;
4597;SDS011;62772;48.646;8.906;2023-06-22T11:02:52;11.98;;;6.63;;
4597;SDS011;62772;48.646;8.906;2023-06-22T11:07:52;13.77;;;6.28;;
4597;SDS011;62772;48.646;8.906;2023-06-22T11:12:53;15.88;;;6.55;;
4597;SDS011;62772;48.646;8.906;2023-06-22T11:17:54;14.93;;;5.88;;
4597;SDS011;62772;48.646;8.906;2023-06-22T11:22:54;9.63;;;5.35;;
4597;SDS011;62772;48.646;8.906;2023-06-22T11:27:55;12.57;;;5.93;;
4597;SDS011;62772;48.646;8.906;2023-06-22T11:32:56;16.40;;;5.90;;
4597;SDS011;62772;48.646;8.906;2023-06-22T11:37:58;12.25;;;5.75;;
4597;SDS011;62772;48.646;8.906;2023-06-22T11:42:58;13.50;;;5.88;;
4597;SDS011;62772;48.646;8.906;2023-06-22T11:47:59;13.38;;;5.88;;
4597;SDS011;62772;48.646;8.906;2023-06-22T11:52:59;11.00;;;5.80;;
4597;SDS011;62772;48.646;8.906;2023-06-22T11:57:59;8.60;;;5.22;;
4597;SDS011;62772;48.646;8.906;2023-06-22T12:03:03;14.80;;;5.95;;
4597;SDS011;62772;48.646;8.906;2023-06-22T12:08:04;9.32;;;5.95;;
4597;SDS011;62772;48.646;8.906;2023-06-22T12:13:04;13.82;;;6.65;;
4597;SDS011;62772;48.646;8.906;2023-06-22T12:18:05;14.20;;;5.95;;
4597;SDS011;62772;48.646;8.906;2023-06-22T12:23:05;11.02;;;6.28;;
4597;SDS011;62772;48.646;8.906;2023-06-22T12:28:06;11.55;;;5.50;;
4597;SDS011;62772;48.646;8.906;2023-06-22T12:33:06;9.15;;;5.05;;
4597;SDS011;62772;48.646;8.906;2023-06-22T12:38:06;15.68;;;5.68;;
4597;SDS011;62772;48.646;8.906;2023-06-22T12:43:08;10.05;;;5.35;;
4597;SDS011;62772;48.646;8.906;2023-06-22T12:48:08;11.55;;;4.85;;
4597;SDS011;62772;48.646;8.906;2023-06-22T12:53:09;9.77;;;4.90;;
4597;SDS011;62772;48.646;8.906;2023-06-22T12:58:09;15.60;;;5.80;;
4597;SDS011;62772;48.646;8.906;2023-06-22T13:03:10;12.00;;;6.00;;
4597;SDS011;62772;48.646;8.906;2023-06-22T13:08:10;9.63;;;5.13;;
4597;SDS011;62772;48.646;8.906;2023-06-22T13:13:11;10.85;;;5.65;;
4597;SDS011;62772;48.646;8.906;2023-06-22T13:18:11;11.82;;;5.30;;
4597;SDS011;62772;48.646;8.906;2023-06-22T13:23:12;12.52;;;5.57;;
4597;SDS011;62772;48.646;8.906;2023-06-22T13:28:12;11.07;;;5.75;;
4597;SDS011;62772;48.646;8.906;2023-06-22T13:33:33;11.30;;;5.57;;
4597;SDS011;62772;48.646;8.906;2023-06-22T13:38:34;13.25;;;6.30;;
4597;SDS011;62772;48.646;8.906;2023-06-22T13:43:38;14.38;;;6.07;;
4597;SDS011;62772;48.646;8.906;2023-06-22T13:48:38;9.27;;;5.82;;
4597;SDS011;62772;48.646;8.906;2023-06-22T13:53:39;11.70;;;6.18;;
4597;SDS011;62772;48.646;8.906;2023-06-22T13:58:40;9.82;;;5.47;;
4597;SDS011;62772;48.646;8.906;2023-06-22T14:03:40;13.25;;;5.78;;
4597;SDS011;62772;48.646;8.906;2023-06-22T14:08:41;16.52;;;5.22;;
4597;SDS011;62772;48.646;8.906;2023-06-22T14:13:42;11.10;;;4.07;;
4597;SDS011;62772;48.646;8.906;2023-06-22T14:18:44;12.48;;;3.10;;
4597;SDS011;62772;48.646;8.906;2023-06-22T14:23:45;12.13;;;3.10;;
4597;SDS011;62772;48.646;8.906;2023-06-22T14:28:49;6.90;;;3.13;;
4597;SDS011;62772;48.646;8.906;2023-06-22T14:33:52;17.50;;;3.35;;
4597;SDS011;62772;48.646;8.906;2023-06-22T14:38:52;8.52;;;2.97;;
4597;SDS011;62772;48.646;8.906;2023-06-22T14:43:53;12.10;;;2.83;;
4597;SDS011;62772;48.646;8.906;2023-06-22T14:48:53;7.32;;;2.75;;
4597;SDS011;62772;48.646;8.906;2023-06-22T14:53:54;9.30;;;2.83;;
4597;SDS011;62772;48.646;8.906;2023-06-22T14:58:54;8.85;;;2.70;;
4597;SDS011;62772;48.646;8.906;2023-06-22T15:03:55;8.77;;;3.20;;
4597;SDS011;62772;48.646;8.906;2023-06-22T15:08:55;11.15;;;2.70;;
4597;SDS011;62772;48.646;8.906;2023-06-22T15:13:58;6.25;;;3.00;;
4597;SDS011;62772;48.646;8.906;2023-06-22T15:18:59;15.90;;;3.53;;
4597;SDS011;62772;48.646;8.906;2023-06-22T15:23:59;5.80;;;2.97;;
4597;SDS011;62772;48.646;8.906;2023-06-22T15:29:00;13.10;;;2.90;;
4597;SDS011;62772;48.646;8.906;2023-06-22T15:34:00;9.82;;;3.28;;
4597;SDS011;62772;48.646;8.906;2023-06-22T15:39:02;9.35;;;3.15;;
4597;SDS011;62772;48.646;8.906;2023-06-22T15:44:02;11.45;;;3.33;;
4597;SDS011;62772;48.646;8.906;2023-06-22T15:49:03;10.02;;;3.38;;
4597;SDS011;62772;48.646;8.906;2023-06-22T15:54:03;9.25;;;3.38;;
4597;SDS011;62772;48.646;8.906;2023-06-22T15:59:04;11.43;;;2.97;;
4597;SDS011;62772;48.646;8.906;2023-06-22T16:04:04;11.45;;;3.78;;
4597;SDS011;62772;48.646;8.906;2023-06-22T16:09:05;13.60;;;4.10;;
4597;SDS011;62772;48.646;8.906;2023-06-22T16:14:05;16.20;;;4.03;;
4597;SDS011;62772;48.646;8.906;2023-06-22T16:19:08;13.70;;;3.65;;
4597;SDS011;62772;48.646;8.906;2023-06-22T16:24:09;9.38;;;3.35;;
4597;SDS011;62772;48.646;8.906;2023-06-22T16:29:10;9.07;;;3.50;;
4597;SDS011;62772;48.646;8.906;2023-06-22T16:34:11;9.00;;;3.20;;
4597;SDS011;62772;48.646;8.906;2023-06-22T16:39:11;7.97;;;3.38;;
4597;SDS011;62772;48.646;8.906;2023-06-22T16:44:11;8.05;;;3.25;;
4597;SDS011;62772;48.646;8.906;2023-06-22T16:49:12;11.98;;;3.13;;
4597;SDS011;62772;48.646;8.906;2023-06-22T16:54:13;11.00;;;3.50;;
4597;SDS011;62772;48.646;8.906;2023-06-22T16:59:13;12.63;;;2.97;;
4597;SDS011;62772;48.646;8.906;2023-06-22T17:04:14;9.23;;;3.33;;
4597;SDS011;62772;48.646;8.906;2023-06-22T17:09:20;12.52;;;3.15;;
4597;SDS011;62772;48.646;8.906;2023-06-22T17:14:22;11.65;;;2.80;;
4597;SDS011;62772;48.646;8.906;2023-06-22T17:19:23;9.75;;;3.40;;
4597;SDS011;62772;48.646;8.906;2023-06-22T17:24:24;12.75;;;3.92;;
4597;SDS011;62772;48.646;8.906;2023-06-22T17:29:28;6.55;;;2.85;;
4597;SDS011;62772;48.646;8.906;2023-06-22T17:34:36;12.23;;;2.80;;
4597;SDS011;62772;48.646;8.906;2023-06-22T17:39:37;5.85;;;2.50;;
4597;SDS011;62772;48.646;8.906;2023-06-22T17:44:38;9.20;;;2.60;;
4597;SDS011;62772;48.646;8.906;2023-06-22T17:49:41;7.00;;;2.45;;
4597;SDS011;62772;48.646;8.906;2023-06-22T17:54:42;6.32;;;2.83;;
4597;SDS011;62772;48.646;8.906;2023-06-22T17:59:48;7.93;;;3.22;;
4597;SDS011;62772;48.646;8.906;2023-06-22T18:04:56;7.22;;;2.45;;
4597;SDS011;62772;48.646;8.906;2023-06-22T18:09:57;11.98;;;2.60;;
4597;SDS011;62772;48.646;8.906;2023-06-22T18:14:59;7.03;;;2.40;;
4597;SDS011;62772;48.646;8.906;2023-06-22T18:20:00;5.32;;;2.75;;
4597;SDS011;62772;48.646;8.906;2023-06-22T18:25:02;7.10;;;3.00;;
4597;SDS011;62772;48.646;8.906;2023-06-22T18:30:04;12.02;;;2.72;;
4597;SDS011;62772;48.646;8.906;2023-06-22T18:35:06;6.07;;;2.80;;
4597;SDS011;62772;48.646;8.906;2023-06-22T18:40:08;6.63;;;2.40;;
4597;SDS011;62772;48.646;8.906;2023-06-22T18:45:23;8.68;;;3.00;;
4597;SDS011;62772;48.646;8.906;2023-06-22T18:55:40;11.23;;;3.20;;
4597;SDS011;62772;48.646;8.906;2023-06-22T19:00:41;6.60;;;2.92;;
4597;SDS011;62772;48.646;8.906;2023-06-22T19:05:42;10.10;;;2.75;;
4597;SDS011;62772;48.646;8.906;2023-06-22T19:10:43;9.63;;;3.20;;
4597;SDS011;62772;48.646;8.906;2023-06-22T19:15:44;7.53;;;3.33;;
4597;SDS011;62772;48.646;8.906;2023-06-22T19:20:51;8.20;;;2.77;;
4597;SDS011;62772;48.646;8.906;2023-06-22T19:25:59;9.50;;;3.30;;
4597;SDS011;62772;48.646;8.906;2023-06-22T19:31:01;7.70;;;3.70;;
4597;SDS011;62772;48.646;8.906;2023-06-22T19:36:03;6.43;;;3.20;;
4597;SDS011;62772;48.646;8.906;2023-06-22T19:41:07;12.60;;;3.42;;
4597;SDS011;62772;48.646;8.906;2023-06-22T19:46:08;13.30;;;4.17;;
4597;SDS011;62772;48.646;8.906;2023-06-22T19:51:09;16.43;;;3.90;;
4597;SDS011;62772;48.646;8.906;2023-06-22T19:56:09;11.70;;;3.70;;
4597;SDS011;62772;48.646;8.906;2023-06-22T20:01:10;8.00;;;3.30;;
4597;SDS011;62772;48.646;8.906;2023-06-22T20:06:11;9.23;;;3.50;;
4597;SDS011;62772;48.646;8.906;2023-06-22T20:11:13;7.00;;;3.40;;
4597;SDS011;62772;48.646;8.906;2023-06-22T20:16:15;11.23;;;4.13;;
4597;SDS011;62772;48.646;8.906;2023-06-22T20:21:16;9.17;;;3.93;;
4597;SDS011;62772;48.646;8.906;2023-06-22T20:26:17;8.53;;;3.70;;
4597;SDS011;62772;48.646;8.906;2023-06-22T20:31:17;9.50;;;3.90;;
4597;SDS011;62772;48.646;8.906;2023-06-22T20:36:18;7.93;;;3.80;;
4597;SDS011;62772;48.646;8.906;2023-06-22T20:41:20;9.27;;;3.73;;
4597;SDS011;62772;48.646;8.906;2023-06-22T20:46:20;6.47;;;2.93;;
4597;SDS011;62772;48.646;8.906;2023-06-22T20:51:21;4.93;;;2.63;;
4597;SDS011;62772;48.646;8.906;2023-06-22T20:56:21;5.37;;;2.60;;
4597;SDS011;62772;48.646;8.906;2023-06-22T21:01:24;3.47;;;1.97;;
4597;SDS011;62772;48.646;8.906;2023-06-22T21:06:24;5.30;;;2.17;;
4597;SDS011;62772;48.646;8.906;2023-06-22T21:11:25;4.53;;;2.00;;
4597;SDS011;62772;48.646;8.906;2023-06-22T21:16:25;5.93;;;2.47;;
4597;SDS011;62772;48.646;8.906;2023-06-22T21:21:25;3.13;;;1.60;;
4597;SDS011;62772;48.646;8.906;2023-06-22T21:26:26;3.07;;;1.70;;
4597;SDS011;62772;48.646;8.906;2023-06-22T21:31:26;4.13;;;1.33;;
4597;SDS011;62772;48.646;8.906;2023-06-22T21:36:27;3.70;;;1.50;;
4597;SDS011;62772;48.646;8.906;2023-06-22T21:41:27;6.47;;;1.40;;
4597;SDS011;62772;48.646;8.906;2023-06-22T21:46:28;2.47;;;1.20;;
4597;SDS011;62772;48.646;8.906;2023-06-22T21:51:29;3.07;;;1.50;;
4597;SDS011;62772;48.646;8.906;2023-06-22T21:56:29;3.40;;;1.33;;
4597;SDS011;62772;48.646;8.906;2023-06-22T22:01:30;2.40;;;1.30;;
4597;SDS011;62772;48.646;8.906;2023-06-22T22:06:30;2.73;;;1.33;;
4597;SDS011;62772;48.646;8.906;2023-06-22T22:11:31;2.80;;;1.40;;
4597;SDS011;62772;48.646;8.906;2023-06-22T22:16:31;2.60;;;1.40;;
4597;SDS011;62772;48.646;8.906;2023-06-22T22:21:32;2.50;;;1.40;;
4597;SDS011;62772;48.646;8.906;2023-06-22T22:26:32;3.53;;;1.70;;
4597;SDS011;62772;48.646;8.906;2023-06-22T22:31:35;2.30;;;1.40;;
4597;SDS011;62772;48.646;8.906;2023-06-22T22:36:38;2.10;;;1.20;;
4597;SDS011;62772;48.646;8.906;2023-06-22T22:41:42;3.90;;;1.70;;
4597;SDS011;62772;48.646;8.906;2023-06-22T22:46:42;2.00;;;1.30;;
4597;SDS011;62772;48.646;8.906;2023-06-22T22:51:43;2.30;;;1.40;;
4597;SDS011;62772;48.646;8.906;2023-06-22T22:56:46;3.50;;;1.30;;
4597;SDS011;62772;48.646;8.906;2023-06-22T23:01:47;2.10;;;1.30;;
4597;SDS011;62772;48.646;8.906;2023-06-22T23:06:47;2.50;;;1.50;;
4597;SDS011;62772;48.646;8.906;2023-06-22T23:11:47;2.67;;;1.40;;
4597;SDS011;62772;48.646;8.906;2023-06-22T23:16:48;2.70;;;1.50;;
4597;SDS011;62772;48.646;8.906;2023-06-22T23:21:48;3.23;;;1.80;;
4597;SDS011;62772;48.646;8.906;2023-06-22T23:26:49;2.60;;;1.63;;
4597;SDS011;62772;48.646;8.906;2023-06-22T23:31:51;4.90;;;1.93;;
4597;SDS011;62772;48.646;8.906;2023-06-22T23:36:54;3.87;;;1.90;;
4597;SDS011;62772;48.646;8.906;2023-06-22T23:41:54;3.30;;;1.87;;
4597;SDS011;62772;48.646;8.906;2023-06-22T23:46:55;3.80;;;2.00;;
4597;SDS011;62772;48.646;8.906;2023-06-22T23:51:57;3.37;;;2.20;;
4597;SDS011;62772;48.646;8.906;2023-06-22T23:56:58;4.60;;;1.93;;
